Time;durP1;ratioP1;P1;durP2;ratioP2;P2;SDS_P1;SDS_P2;PMS_P1;PMS_P2;Temp;Humidity;BMP_temperature;BMP_pressure;BME280_temperature;BME280_humidity;BME280_pressure;Samples;Min_cycle;Max_cycle;Signal;HPM_P1;HPM_P2
2022/11/03 00:00:43;;;;;;;9.80;1.83;;;;;;;;;;8263247;28;20040;-62
2022/11/03 00:04:43;;;;;;;6.00;1.85;;;;;;;;;;8271198;28;20112;-61
2022/11/03 00:08:43;;;;;;;11.07;1.80;;;;;;;;;;8276364;28;20026;-61
2022/11/03 00:12:43;;;;;;;5.97;1.50;;;;;;;;;;8277120;28;20069;-62
2022/11/03 00:16:44;;;;;;;8.43;1.75;;;;;;;;;;8270360;28;20025;-61
2022/11/03 00:20:44;;;;;;;8.73;2.00;;;;;;;;;;8270444;28;20025;-62
2022/11/03 00:24:44;;;;;;;9.25;2.70;;;;;;;;;;8271760;28;20053;-62
2022/11/03 00:28:46;;;;;;;14.57;2.42;;;;;;;;;;8269013;28;20033;-61
2022/11/03 00:32:46;;;;;;;12.65;2.15;;;;;;;;;;8268797;28;20088;-62
2022/11/03 00:36:46;;;;;;;11.03;1.93;;;;;;;;;;8268343;28;20022;-62
2022/11/03 00:40:51;;;;;;;10.70;2.75;;;;;;;;;;8270611;28;20388;-62
2022/11/03 00:44:52;;;;;;;10.75;2.88;;;;;;;;;;8269819;28;20115;-61
2022/11/03 00:48:52;;;;;;;10.70;2.83;;;;;;;;;;8268024;28;20156;-63
2022/11/03 00:52:52;;;;;;;8.73;2.70;;;;;;;;;;8270029;28;20192;-63
2022/11/03 00:56:52;;;;;;;8.20;2.60;;;;;;;;;;8271347;28;20029;-61
2022/11/03 01:01:00;;;;;;;7.97;1.95;;;;;;;;;;8273741;28;20271;-61
2022/11/03 01:09:22;;;;;;;7.22;1.75;;;;;;;;;;8273662;28;20855;-61
2022/11/03 01:13:22;;;;;;;7.85;1.42;;;;;;;;;;8273562;28;20704;-61
2022/11/03 01:17:24;;;;;;;5.40;1.50;;;;;;;;;;8272458;28;20030;-62
2022/11/03 01:21:24;;;;;;;10.02;1.80;;;;;;;;;;8272997;28;20030;-62
2022/11/03 01:25:25;;;;;;;7.25;1.60;;;;;;;;;;8274716;28;20025;-62
2022/11/03 01:29:25;;;;;;;6.97;1.95;;;;;;;;;;8273277;28;20498;-62
2022/11/03 01:33:25;;;;;;;7.20;1.60;;;;;;;;;;8272722;28;20041;-62
2022/11/03 01:37:26;;;;;;;8.10;2.07;;;;;;;;;;8275865;28;20017;-61
2022/11/03 01:41:27;;;;;;;12.27;1.73;;;;;;;;;;8275190;28;20025;-62
2022/11/03 01:45:27;;;;;;;4.65;1.30;;;;;;;;;;8276492;28;20039;-62
2022/11/03 01:49:30;;;;;;;6.70;1.48;;;;;;;;;;8274335;28;20186;-62
2022/11/03 01:53:30;;;;;;;4.57;1.40;;;;;;;;;;8275887;28;20036;-62
2022/11/03 01:57:37;;;;;;;4.80;1.70;;;;;;;;;;8274415;28;20021;-61
2022/11/03 02:01:40;;;;;;;9.10;1.55;;;;;;;;;;8274912;28;20042;-62
2022/11/03 02:05:42;;;;;;;5.45;1.52;;;;;;;;;;8270351;28;20022;-62
2022/11/03 02:09:42;;;;;;;7.03;2.15;;;;;;;;;;8272212;28;20033;-61
2022/11/03 02:13:43;;;;;;;6.38;1.60;;;;;;;;;;8271526;28;20029;-62
2022/11/03 02:17:45;;;;;;;8.27;1.60;;;;;;;;;;8273870;28;20065;-62
2022/11/03 02:21:56;;;;;;;7.45;1.60;;;;;;;;;;8275270;28;20273;-62
2022/11/03 02:25:57;;;;;;;8.52;1.65;;;;;;;;;;8273371;28;20037;-62
2022/11/03 02:29:57;;;;;;;5.40;1.35;;;;;;;;;;8273384;28;20044;-61
2022/11/03 02:34:12;;;;;;;3.83;1.40;;;;;;;;;;8273286;28;20038;-61
2022/11/03 02:38:14;;;;;;;4.93;1.38;;;;;;;;;;8272767;28;20028;-61
2022/11/03 02:42:17;;;;;;;4.47;1.35;;;;;;;;;;8275144;28;20029;-61
2022/11/03 02:46:18;;;;;;;6.00;1.73;;;;;;;;;;8272200;28;20064;-61
2022/11/03 02:50:20;;;;;;;6.50;1.70;;;;;;;;;;8271910;28;20071;-62
2022/11/03 02:54:30;;;;;;;10.82;1.65;;;;;;;;;;8274031;28;20021;-62
2022/11/03 02:58:49;;;;;;;8.45;2.17;;;;;;;;;;8273507;28;20454;-61
2022/11/03 03:02:53;;;;;;;8.07;2.30;;;;;;;;;;8272704;28;20068;-61
2022/11/03 03:07:00;;;;;;;6.63;2.20;;;;;;;;;;8272069;28;20033;-61
2022/11/03 03:11:01;;;;;;;5.32;2.17;;;;;;;;;;8270439;28;20044;-61
2022/11/03 03:15:02;;;;;;;9.40;2.42;;;;;;;;;;8270287;28;20018;-61
2022/11/03 03:19:10;;;;;;;10.63;2.00;;;;;;;;;;8272881;28;20040;-62
2022/11/03 03:23:15;;;;;;;8.15;2.15;;;;;;;;;;8272178;28;20462;-61
2022/11/03 03:27:16;;;;;;;18.33;2.38;;;;;;;;;;8268193;28;20149;-61
2022/11/03 03:31:18;;;;;;;10.80;2.30;;;;;;;;;;8268966;28;20041;-61
2022/11/03 03:35:22;;;;;;;9.77;2.33;;;;;;;;;;8273775;28;20037;-62
2022/11/03 03:39:23;;;;;;;6.32;1.90;;;;;;;;;;8273601;28;20364;-61
2022/11/03 03:43:25;;;;;;;5.35;1.90;;;;;;;;;;8271598;28;20557;-62
2022/11/03 03:47:29;;;;;;;6.43;2.00;;;;;;;;;;8272930;28;20124;-62
2022/11/03 03:51:29;;;;;;;7.65;2.00;;;;;;;;;;8269477;28;20815;-61
2022/11/03 03:55:34;;;;;;;7.30;1.98;;;;;;;;;;8270231;28;20030;-61
2022/11/03 03:59:34;;;;;;;8.73;1.80;;;;;;;;;;8269785;28;20025;-62
2022/11/03 04:03:35;;;;;;;4.93;1.70;;;;;;;;;;8269605;28;20042;-62
2022/11/03 04:07:47;;;;;;;5.10;1.80;;;;;;;;;;8273148;28;20079;-61
2022/11/03 04:24:47;;;;;;;9.48;2.13;;;;;;;;;;8270112;28;20041;-61
2022/11/03 04:28:48;;;;;;;11.30;2.10;;;;;;;;;;8269990;28;20040;-62
2022/11/03 04:32:49;;;;;;;3.70;2.20;;;;;;;;;;8267861;28;20054;-62
2022/11/03 04:36:50;;;;;;;6.97;2.47;;;;;;;;;;8266530;28;20029;-61
2022/11/03 04:40:54;;;;;;;3.90;2.00;;;;;;;;;;8268644;28;20021;-61
2022/11/03 04:44:54;;;;;;;7.35;2.10;;;;;;;;;;8271223;28;20317;-62
2022/11/03 04:48:59;;;;;;;6.18;1.73;;;;;;;;;;8270322;28;20740;-61
2022/11/03 04:52:59;;;;;;;8.15;2.30;;;;;;;;;;8268734;28;20060;-61
2022/11/03 04:57:04;;;;;;;5.47;1.85;;;;;;;;;;8269898;28;20026;-62
2022/11/03 05:01:08;;;;;;;4.05;1.70;;;;;;;;;;8266399;28;20068;-61
2022/11/03 05:05:14;;;;;;;5.78;2.03;;;;;;;;;;8268700;28;20021;-61
2022/11/03 05:09:15;;;;;;;6.57;1.92;;;;;;;;;;8268867;28;20384;-61
2022/11/03 05:13:21;;;;;;;3.60;1.52;;;;;;;;;;8268523;28;20055;-61
2022/11/03 05:17:22;;;;;;;9.23;2.97;;;;;;;;;;8268133;28;20079;-61
2022/11/03 05:21:24;;;;;;;7.72;2.22;;;;;;;;;;8267411;28;20152;-61
2022/11/03 05:25:31;;;;;;;5.53;2.35;;;;;;;;;;8268342;28;20026;-61
2022/11/03 05:29:35;;;;;;;7.07;1.92;;;;;;;;;;8270166;28;20041;-61
2022/11/03 05:33:35;;;;;;;;;;;;;;;;;;8266115;28;20095;-61
2022/11/03 05:37:35;;;;;;;7.88;1.80;;;;;;;;;;8267024;28;20793;-61
2022/11/03 05:41:36;;;;;;;8.90;2.13;;;;;;;;;;8265913;28;20026;-62
2022/11/03 05:45:36;;;;;;;12.85;3.63;;;;;;;;;;8271152;28;20034;-61
2022/11/03 05:49:37;;;;;;;13.32;3.10;;;;;;;;;;8273665;28;20040;-61
2022/11/03 05:53:42;;;;;;;12.75;3.92;;;;;;;;;;8275805;28;20863;-61
2022/11/03 05:57:42;;;;;;;13.30;4.32;;;;;;;;;;8275029;28;20152;-62
2022/11/03 06:01:42;;;;;;;30.33;14.02;;;;;;;;;;8274165;28;20127;-61
2022/11/03 06:05:42;;;;;;;10.85;5.50;;;;;;;;;;8274690;28;20149;-63
2022/11/03 06:09:42;;;;;;;12.48;4.90;;;;;;;;;;8275202;28;20041;-61
2022/11/03 06:13:43;;;;;;;9.60;5.30;;;;;;;;;;8272160;28;20061;-62
2022/11/03 06:17:43;;;;;;;14.27;3.70;;;;;;;;;;8273680;28;20871;-62
2022/11/03 06:21:43;;;;;;;12.32;3.83;;;;;;;;;;8273604;28;20240;-62
2022/11/03 06:25:44;;;;;;;12.10;3.40;;;;;;;;;;8274736;28;20026;-61
2022/11/03 06:29:49;;;;;;;8.35;3.35;;;;;;;;;;8275153;28;20095;-62
2022/11/03 06:33:50;;;;;;;9.45;3.58;;;;;;;;;;8272715;28;20038;-61
2022/11/03 06:37:50;;;;;;;10.98;4.28;;;;;;;;;;8274168;28;20494;-61
2022/11/03 06:41:51;;;;;;;15.57;5.72;;;;;;;;;;8272232;28;20025;-61
2022/11/03 06:45:56;;;;;;;11.77;5.50;;;;;;;;;;8272766;28;20045;-62
2022/11/03 06:49:58;;;;;;;9.95;4.22;;;;;;;;;;8270264;28;20060;-63
2022/11/03 06:53:59;;;;;;;8.18;3.45;;;;;;;;;;8271822;28;20096;-62
2022/11/03 06:58:22;;;;;;;9.98;3.90;;;;;;;;;;8270063;28;20092;-62
2022/11/03 07:02:40;;;;;;;13.18;3.40;;;;;;;;;;8263980;28;20125;-62
2022/11/03 07:06:41;;;;;;;8.35;3.20;;;;;;;;;;8271024;28;20409;-62
2022/11/03 07:10:41;;;;;;;5.93;2.90;;;;;;;;;;8268788;28;20053;-62
2022/11/03 07:14:42;;;;;;;8.27;2.80;;;;;;;;;;8269720;28;20512;-62
2022/11/03 07:18:43;;;;;;;9.93;3.00;;;;;;;;;;8272897;28;20034;-62
2022/11/03 07:22:45;;;;;;;7.57;3.20;;;;;;;;;;8268014;28;20021;-63
2022/11/03 07:26:45;;;;;;;9.80;3.20;;;;;;;;;;8269182;28;20032;-62
2022/11/03 07:30:45;;;;;;;13.93;7.03;;;;;;;;;;8266151;28;20632;-63
2022/11/03 07:34:46;;;;;;;12.50;3.67;;;;;;;;;;8267510;28;20694;-62
2022/11/03 07:38:48;;;;;;;11.50;3.58;;;;;;;;;;8268497;28;21314;-62
2022/11/03 07:42:48;;;;;;;10.35;3.80;;;;;;;;;;8261486;28;20030;-63
2022/11/03 07:46:49;;;;;;;15.23;4.65;;;;;;;;;;8266595;28;20042;-63
2022/11/03 07:50:54;;;;;;;9.10;4.13;;;;;;;;;;8264092;28;20080;-64
2022/11/03 07:54:56;;;;;;;15.50;6.15;;;;;;;;;;8266768;28;20125;-63
2022/11/03 07:59:08;;;;;;;18.63;6.93;;;;;;;;;;8267382;28;20033;-63
2022/11/03 08:03:19;;;;;;;21.42;7.00;;;;;;;;;;8266941;28;20353;-63
2022/11/03 08:07:19;;;;;;;18.33;6.93;;;;;;;;;;8265730;28;20518;-62
2022/11/03 08:11:21;;;;;;;21.90;6.35;;;;;;;;;;8265260;28;20083;-62
2022/11/03 08:15:21;;;;;;;21.27;7.00;;;;;;;;;;8265119;28;20021;-63
2022/11/03 08:19:22;;;;;;;18.87;6.87;;;;;;;;;;8265153;28;20025;-63
2022/11/03 08:23:22;;;;;;;35.95;7.63;;;;;;;;;;8266470;28;20302;-63
2022/11/03 08:27:22;;;;;;;27.60;8.23;;;;;;;;;;8264089;28;20053;-63
2022/11/03 08:31:22;;;;;;;16.80;7.93;;;;;;;;;;8263100;28;20093;-63
2022/11/03 08:35:22;;;;;;;15.10;6.80;;;;;;;;;;8262241;28;20689;-63
2022/11/03 08:39:23;;;;;;;15.70;5.90;;;;;;;;;;8265548;28;20706;-62
2022/11/03 08:43:23;;;;;;;14.80;5.03;;;;;;;;;;8264457;28;20033;-63
2022/11/03 08:47:23;;;;;;;11.67;4.70;;;;;;;;;;8264167;28;20096;-63
2022/11/03 08:51:23;;;;;;;10.35;4.80;;;;;;;;;;8265365;28;20316;-63
2022/11/03 08:55:23;;;;;;;16.20;6.20;;;;;;;;;;8265343;28;20427;-63
2022/11/03 08:59:24;;;;;;;14.97;6.87;;;;;;;;;;8264039;28;20032;-63
2022/11/03 09:03:24;;;;;;;13.15;5.63;;;;;;;;;;8263560;28;20285;-62
2022/11/03 09:07:24;;;;;;;10.27;5.18;;;;;;;;;;8264772;28;20021;-63
2022/11/03 09:11:24;;;;;;;14.30;6.60;;;;;;;;;;8264164;28;20034;-62
2022/11/03 09:15:25;;;;;;;15.57;8.30;;;;;;;;;;8262831;28;20037;-62
2022/11/03 09:19:25;;;;;;;11.33;6.73;;;;;;;;;;8268262;28;20636;-63
2022/11/03 09:23:25;;;;;;;12.32;7.70;;;;;;;;;;8271203;28;20955;-63
2022/11/03 09:27:25;;;;;;;12.60;6.20;;;;;;;;;;8270245;28;20036;-63
2022/11/03 09:31:27;;;;;;;10.07;5.90;;;;;;;;;;8270425;28;20053;-62
2022/11/03 09:35:27;;;;;;;15.82;7.60;;;;;;;;;;8266990;28;20895;-63
2022/11/03 09:39:27;;;;;;;17.80;9.33;;;;;;;;;;8266978;28;20034;-62
2022/11/03 09:43:28;;;;;;;28.23;15.20;;;;;;;;;;8271323;28;20473;-62
2022/11/03 09:47:31;;;;;;;26.27;13.95;;;;;;;;;;8270066;28;20493;-62
2022/11/03 09:51:33;;;;;;;14.90;5.60;;;;;;;;;;8270999;28;20583;-62
2022/11/03 09:55:34;;;;;;;13.27;5.72;;;;;;;;;;8270965;28;20478;-62
2022/11/03 09:59:36;;;;;;;14.98;6.32;;;;;;;;;;8271859;28;20022;-62
2022/11/03 10:03:38;;;;;;;11.70;4.95;;;;;;;;;;8268795;28;20045;-62
2022/11/03 10:07:38;;;;;;;14.38;4.68;;;;;;;;;;8269021;28;20021;-66
2022/11/03 10:11:38;;;;;;;10.40;4.13;;;;;;;;;;8272030;28;20724;-62
2022/11/03 10:15:38;;;;;;;14.25;6.18;;;;;;;;;;8269394;28;20315;-62
2022/11/03 10:19:39;;;;;;;10.73;4.63;;;;;;;;;;8267638;28;20021;-62
2022/11/03 10:23:39;;;;;;;9.33;4.43;;;;;;;;;;8270588;28;20263;-62
2022/11/03 10:27:39;;;;;;;11.35;4.85;;;;;;;;;;8270562;28;20327;-62
2022/11/03 10:31:40;;;;;;;11.55;4.97;;;;;;;;;;8266698;28;20045;-62
2022/11/03 10:35:40;;;;;;;11.40;4.40;;;;;;;;;;8270248;28;20028;-62
2022/11/03 10:39:41;;;;;;;8.65;4.05;;;;;;;;;;8268841;28;20109;-62
2022/11/03 10:44:01;;;;;;;12.02;4.40;;;;;;;;;;8269287;28;20029;-62
2022/11/03 10:48:04;;;;;;;15.15;5.10;;;;;;;;;;8268451;28;20586;-62
2022/11/03 10:52:21;;;;;;;13.15;7.60;;;;;;;;;;8268294;28;20026;-62
2022/11/03 10:56:21;;;;;;;16.60;7.57;;;;;;;;;;8267262;28;20156;-62
2022/11/03 11:00:23;;;;;;;17.08;8.05;;;;;;;;;;8266053;28;20058;-62
2022/11/03 11:04:23;;;;;;;18.23;8.40;;;;;;;;;;8276110;28;20021;-63
2022/11/03 11:08:24;;;;;;;21.98;9.20;;;;;;;;;;8272021;28;20026;-62
2022/11/03 11:12:24;;;;;;;17.50;7.03;;;;;;;;;;8270823;28;20028;-62
2022/11/03 11:16:43;;;;;;;17.65;6.40;;;;;;;;;;8270798;28;20034;-62
2022/11/03 11:20:43;;;;;;;7.82;4.78;;;;;;;;;;8271858;28;20036;-62
2022/11/03 11:24:43;;;;;;;19.73;7.95;;;;;;;;;;8270103;28;20025;-63
2022/11/03 11:29:19;;;;;;;13.93;5.88;;;;;;;;;;8271603;28;20031;-62
2022/11/03 11:33:23;;;;;;;10.23;4.57;;;;;;;;;;8268552;28;20041;-62
2022/11/03 11:37:23;;;;;;;13.05;5.45;;;;;;;;;;8269917;28;20033;-64
2022/11/03 11:41:42;;;;;;;16.60;7.78;;;;;;;;;;8270008;28;20518;-63
2022/11/03 11:46:01;;;;;;;18.60;8.15;;;;;;;;;;8270503;28;20488;-63
2022/11/03 11:50:10;;;;;;;16.38;8.07;;;;;;;;;;8271050;28;20025;-62
2022/11/03 11:54:14;;;;;;;11.88;5.93;;;;;;;;;;8270442;28;20018;-62
2022/11/03 11:58:17;;;;;;;11.70;5.90;;;;;;;;;;8271388;28;20158;-62
2022/11/03 12:02:22;;;;;;;19.10;7.75;;;;;;;;;;8269902;28;20034;-62
2022/11/03 12:06:36;;;;;;;14.85;6.18;;;;;;;;;;8271233;28;20025;-62
2022/11/03 12:10:36;;;;;;;10.57;5.10;;;;;;;;;;8268873;28;20467;-62
2022/11/03 12:14:37;;;;;;;11.20;5.45;;;;;;;;;;8269125;28;20112;-62
2022/11/03 12:18:38;;;;;;;14.88;6.25;;;;;;;;;;8269286;28;20625;-62
2022/11/03 12:22:39;;;;;;;12.07;6.03;;;;;;;;;;8267430;28;20372;-62
2022/11/03 12:26:39;;;;;;;14.57;7.93;;;;;;;;;;8270242;28;20094;-62
2022/11/03 12:30:39;;;;;;;13.73;7.87;;;;;;;;;;8264268;28;20128;-62
2022/11/03 12:34:39;;;;;;;16.98;8.40;;;;;;;;;;8267936;28;20029;-62
2022/11/03 12:38:40;;;;;;;16.70;8.83;;;;;;;;;;8267233;28;20752;-62
2022/11/03 12:42:40;;;;;;;15.90;8.27;;;;;;;;;;8267999;28;20124;-62
2022/11/03 12:46:40;;;;;;;12.75;7.28;;;;;;;;;;8268873;28;20507;-63
2022/11/03 12:50:40;;;;;;;21.17;9.10;;;;;;;;;;8267785;28;20938;-62
2022/11/03 12:54:41;;;;;;;22.73;9.10;;;;;;;;;;8266440;28;20028;-63
2022/11/03 12:58:41;;;;;;;17.23;6.60;;;;;;;;;;8267691;28;20028;-63
2022/11/03 13:02:41;;;;;;;16.10;7.20;;;;;;;;;;8266400;28;20095;-62
2022/11/03 13:06:42;;;;;;;25.00;10.80;;;;;;;;;;8266304;28;20382;-61
2022/11/03 13:10:42;;;;;;;19.38;9.20;;;;;;;;;;8268505;28;20322;-62
2022/11/03 13:14:42;;;;;;;19.20;9.53;;;;;;;;;;8267175;28;20207;-62
2022/11/03 13:18:42;;;;;;;18.00;8.13;;;;;;;;;;8266592;28;20029;-62
2022/11/03 13:22:43;;;;;;;16.90;7.72;;;;;;;;;;8268418;28;20034;-62
2022/11/03 13:26:43;;;;;;;16.23;7.55;;;;;;;;;;8268141;28;20052;-63
2022/11/03 13:30:43;;;;;;;10.68;6.65;;;;;;;;;;8267260;28;20738;-62
2022/11/03 13:34:43;;;;;;;17.58;7.38;;;;;;;;;;8267646;28;20379;-62
2022/11/03 13:38:43;;;;;;;18.88;8.20;;;;;;;;;;8269307;28;20474;-62
2022/11/03 13:42:44;;;;;;;14.10;7.25;;;;;;;;;;8266584;28;20196;-62
2022/11/03 13:46:44;;;;;;;10.00;6.00;;;;;;;;;;8268516;28;20034;-62
2022/11/03 13:50:45;;;;;;;11.38;6.22;;;;;;;;;;8266559;28;20026;-62
2022/11/03 13:54:45;;;;;;;15.70;7.03;;;;;;;;;;8268509;28;20018;-62
2022/11/03 13:58:45;;;;;;;27.33;9.10;;;;;;;;;;8263864;28;20018;-62
2022/11/03 14:02:47;;;;;;;18.00;8.80;;;;;;;;;;8262661;28;20044;-61
2022/11/03 14:06:47;;;;;;;12.25;6.38;;;;;;;;;;8267852;28;20423;-62
2022/11/03 14:10:47;;;;;;;11.63;6.63;;;;;;;;;;8270518;28;20112;-62
2022/11/03 14:14:47;;;;;;;13.25;6.90;;;;;;;;;;8271389;28;20021;-62
2022/11/03 14:18:48;;;;;;;9.93;5.90;;;;;;;;;;8269056;28;20037;-62
2022/11/03 14:22:48;;;;;;;11.70;6.10;;;;;;;;;;8270124;28;20022;-62
2022/11/03 14:26:48;;;;;;;8.60;5.45;;;;;;;;;;8271341;28;20057;-63
2022/11/03 14:30:49;;;;;;;12.37;5.47;;;;;;;;;;8270583;28;20761;-63
2022/11/03 14:34:50;;;;;;;10.43;5.75;;;;;;;;;;8271319;28;20025;-63
2022/11/03 14:38:50;;;;;;;13.00;5.78;;;;;;;;;;8268599;28;20037;-62
2022/11/03 14:42:50;;;;;;;11.75;6.68;;;;;;;;;;8269118;28;20073;-62
2022/11/03 14:46:50;;;;;;;11.48;6.55;;;;;;;;;;8265443;28;20038;-62
2022/11/03 14:50:52;;;;;;;11.13;5.55;;;;;;;;;;8270496;28;20636;-62
2022/11/03 14:54:52;;;;;;;16.98;8.63;;;;;;;;;;8269389;28;20040;-63
2022/11/03 14:58:52;;;;;;;14.07;7.50;;;;;;;;;;8269793;28;20033;-62
2022/11/03 15:02:52;;;;;;;11.38;6.13;;;;;;;;;;8265906;28;20089;-62
2022/11/03 15:06:55;;;;;;;12.43;6.32;;;;;;;;;;8268254;28;20416;-62
2022/11/03 15:10:56;;;;;;;11.30;6.13;;;;;;;;;;8268604;28;20347;-62
2022/11/03 15:14:56;;;;;;;9.43;5.38;;;;;;;;;;8266585;28;20057;-62
2022/11/03 15:18:58;;;;;;;10.57;5.07;;;;;;;;;;8265961;28;20048;-62
2022/11/03 15:22:58;;;;;;;11.30;6.30;;;;;;;;;;8269434;28;20033;-62
2022/11/03 15:26:58;;;;;;;11.95;5.43;;;;;;;;;;8267515;28;20269;-62
2022/11/03 15:30:58;;;;;;;8.77;5.32;;;;;;;;;;8267668;28;20111;-62
2022/11/03 15:34:59;;;;;;;14.53;6.47;;;;;;;;;;8268565;28;20030;-62
2022/11/03 15:38:59;;;;;;;12.18;7.38;;;;;;;;;;8267893;28;20280;-62
2022/11/03 15:42:59;;;;;;;12.48;6.38;;;;;;;;;;8266482;28;20014;-62
2022/11/03 15:46:59;;;;;;;13.63;8.90;;;;;;;;;;8268157;28;20040;-62
2022/11/03 15:51:00;;;;;;;11.60;6.73;;;;;;;;;;8269337;28;20063;-62
2022/11/03 15:55:00;;;;;;;12.10;6.15;;;;;;;;;;8267774;28;20271;-63
2022/11/03 15:59:01;;;;;;;11.18;6.50;;;;;;;;;;8268001;28;20025;-62
2022/11/03 16:03:01;;;;;;;12.48;7.43;;;;;;;;;;8265216;28;20111;-62
2022/11/03 16:07:01;;;;;;;9.40;5.97;;;;;;;;;;8266150;28;20020;-62
2022/11/03 16:11:01;;;;;;;10.20;5.00;;;;;;;;;;8267440;28;20164;-62
2022/11/03 16:15:02;;;;;;;10.73;5.38;;;;;;;;;;8266223;28;20092;-62
2022/11/03 16:19:02;;;;;;;7.35;3.97;;;;;;;;;;8265543;28;20037;-62
2022/11/03 16:23:02;;;;;;;5.78;3.65;;;;;;;;;;8267493;28;20111;-62
2022/11/03 16:27:02;;;;;;;6.80;3.83;;;;;;;;;;8264722;28;20106;-61
2022/11/03 16:31:02;;;;;;;4.10;3.20;;;;;;;;;;8264872;28;20048;-62
2022/11/03 16:35:03;;;;;;;6.00;3.38;;;;;;;;;;8265381;28;20283;-62
2022/11/03 16:39:03;;;;;;;7.05;3.90;;;;;;;;;;8265508;28;20538;-62
2022/11/03 16:43:03;;;;;;;5.38;3.47;;;;;;;;;;8265981;28;20021;-63
2022/11/03 16:47:04;;;;;;;4.60;3.22;;;;;;;;;;8262190;28;20113;-63
2022/11/03 16:51:04;;;;;;;5.20;3.60;;;;;;;;;;8261251;28;20034;-64
2022/11/03 16:55:05;;;;;;;5.70;3.70;;;;;;;;;;8267588;28;20028;-63
2022/11/03 16:59:05;;;;;;;6.88;3.78;;;;;;;;;;8267193;28;20354;-63
2022/11/03 17:03:05;;;;;;;8.10;5.47;;;;;;;;;;8266350;28;20038;-63
2022/11/03 17:07:06;;;;;;;13.23;7.78;;;;;;;;;;8268760;28;20276;-63
2022/11/03 17:11:06;;;;;;;11.55;7.70;;;;;;;;;;8266662;28;20290;-63
2022/11/03 17:15:06;;;;;;;11.15;7.13;;;;;;;;;;8267311;28;20333;-63
2022/11/03 17:19:07;;;;;;;15.68;7.25;;;;;;;;;;8266945;28;20470;-65
2022/11/03 17:23:08;;;;;;;8.55;5.72;;;;;;;;;;8266408;28;20057;-64
2022/11/03 17:27:13;;;;;;;13.75;9.68;;;;;;;;;;8266216;28;20113;-63
2022/11/03 17:31:15;;;;;;;13.82;9.25;;;;;;;;;;8267150;28;20131;-63
2022/11/03 17:35:17;;;;;;;15.00;10.20;;;;;;;;;;8266364;28;20790;-63
2022/11/03 17:39:21;;;;;;;16.08;11.55;;;;;;;;;;8267520;28;20852;-64
2022/11/03 17:43:21;;;;;;;;;;;;;;;;;;8272159;28;20045;-63
2022/11/03 17:47:22;;;;;;;17.73;10.18;;;;;;;;;;8272794;28;19917;-64
2022/11/03 17:51:22;;;;;;;27.65;14.07;;;;;;;;;;8272544;28;20041;-63
2022/11/03 17:55:22;;;;;;;18.95;11.00;;;;;;;;;;8272379;28;20018;-63
2022/11/03 17:59:22;;;;;;;15.55;8.43;;;;;;;;;;8273358;28;20070;-63
2022/11/03 18:03:23;;;;;;;11.33;6.33;;;;;;;;;;8270634;28;20749;-63
2022/11/03 18:07:24;;;;;;;5.23;3.90;;;;;;;;;;8270606;28;20026;-63
2022/11/03 18:15:51;;;;;;;7.80;4.22;;;;;;;;;;8272327;28;20072;-63
2022/11/03 18:19:51;;;;;;;7.57;4.15;;;;;;;;;;8271257;28;20058;-65
2022/11/03 18:23:51;;;;;;;13.73;6.78;;;;;;;;;;8272239;28;20037;-62
2022/11/03 18:27:52;;;;;;;6.43;4.37;;;;;;;;;;8269140;28;20080;-63
2022/11/03 18:31:52;;;;;;;6.05;4.90;;;;;;;;;;8271199;28;20042;-63
2022/11/03 18:35:52;;;;;;;19.77;12.23;;;;;;;;;;8271665;28;20076;-63
2022/11/03 18:39:53;;;;;;;11.80;6.93;;;;;;;;;;8271891;28;20387;-62
2022/11/03 18:43:53;;;;;;;12.43;6.90;;;;;;;;;;8270770;28;20772;-63
2022/11/03 18:47:53;;;;;;;8.23;4.53;;;;;;;;;;8269646;28;20041;-63
2022/11/03 18:51:54;;;;;;;8.15;5.20;;;;;;;;;;8270038;28;20110;-62
2022/11/03 18:55:59;;;;;;;9.23;6.38;;;;;;;;;;8271758;28;20167;-63
2022/11/03 19:00:00;;;;;;;8.52;5.38;;;;;;;;;;8272099;28;20029;-63
2022/11/03 19:04:01;;;;;;;6.68;4.38;;;;;;;;;;8270092;28;20104;-63
2022/11/03 19:08:01;;;;;;;7.47;4.40;;;;;;;;;;8270218;28;20744;-63
2022/11/03 19:12:01;;;;;;;7.67;4.47;;;;;;;;;;8269879;28;20491;-63
2022/11/03 19:16:06;;;;;;;4.47;3.35;;;;;;;;;;8269430;28;21014;-63
2022/11/03 19:20:10;;;;;;;5.45;3.67;;;;;;;;;;8269281;28;20105;-63
2022/11/03 19:24:11;;;;;;;7.63;3.95;;;;;;;;;;8269869;28;20048;-63
2022/11/03 19:28:12;;;;;;;8.85;4.32;;;;;;;;;;8270434;28;20029;-64
2022/11/03 19:32:16;;;;;;;7.97;4.15;;;;;;;;;;8272014;28;20095;-63
2022/11/03 19:36:16;;;;;;;8.43;4.78;;;;;;;;;;8268446;28;20037;-63
2022/11/03 19:40:18;;;;;;;8.48;5.28;;;;;;;;;;8267433;28;20026;-63
2022/11/03 19:44:18;;;;;;;6.88;5.00;;;;;;;;;;8275506;28;20597;-63
2022/11/03 19:48:18;;;;;;;8.20;5.70;;;;;;;;;;8267362;28;20065;-64
2022/11/03 19:52:19;;;;;;;10.17;6.80;;;;;;;;;;8268489;28;21304;-63
2022/11/03 19:56:20;;;;;;;16.33;8.77;;;;;;;;;;8268595;28;20328;-63
2022/11/03 20:00:20;;;;;;;14.93;9.95;;;;;;;;;;8267347;28;20029;-63
2022/11/03 20:04:20;;;;;;;8.90;6.47;;;;;;;;;;8269726;28;20071;-63
2022/11/03 20:08:23;;;;;;;6.97;6.05;;;;;;;;;;8269434;28;20025;-63
2022/11/03 20:12:23;;;;;;;8.38;5.10;;;;;;;;;;8268948;28;20025;-63
2022/11/03 20:16:23;;;;;;;11.38;6.18;;;;;;;;;;8269248;28;20080;-63
2022/11/03 20:20:26;;;;;;;10.65;5.90;;;;;;;;;;8267505;28;20483;-63
2022/11/03 20:24:26;;;;;;;14.07;6.55;;;;;;;;;;8269028;28;20026;-63
2022/11/03 20:28:28;;;;;;;6.85;4.32;;;;;;;;;;8267997;28;20080;-63
2022/11/03 20:32:28;;;;;;;5.88;3.90;;;;;;;;;;8267664;28;20454;-63
2022/11/03 20:36:32;;;;;;;5.00;3.58;;;;;;;;;;8266022;28;20092;-63
2022/11/03 20:40:32;;;;;;;4.30;3.67;;;;;;;;;;8266534;28;20025;-63
2022/11/03 20:44:32;;;;;;;4.85;3.50;;;;;;;;;;8268220;28;20095;-62
2022/11/03 20:48:32;;;;;;;5.18;3.40;;;;;;;;;;8270534;28;20062;-65
2022/11/03 20:52:32;;;;;;;4.32;3.40;;;;;;;;;;8269728;28;20124;-62
2022/11/03 20:56:33;;;;;;;4.20;3.47;;;;;;;;;;8266620;28;20094;-63
2022/11/03 21:00:34;;;;;;;4.28;3.30;;;;;;;;;;8267441;28;20256;-63
2022/11/03 21:04:34;;;;;;;4.53;3.10;;;;;;;;;;8266477;28;20116;-63
2022/11/03 21:08:34;;;;;;;4.40;2.83;;;;;;;;;;8268800;28;20021;-63
2022/11/03 21:12:35;;;;;;;3.63;2.73;;;;;;;;;;8266407;28;20030;-63
2022/11/03 21:20:54;;;;;;;3.72;2.80;;;;;;;;;;8272461;28;20055;-63
2022/11/03 21:24:54;;;;;;;6.22;3.30;;;;;;;;;;8273087;28;20835;-63
2022/11/03 21:28:55;;;;;;;4.38;3.22;;;;;;;;;;8271726;28;20175;-64
2022/11/03 21:32:55;;;;;;;3.10;2.80;;;;;;;;;;8275877;28;20080;-64
2022/11/03 21:36:55;;;;;;;5.53;2.27;;;;;;;;;;8273878;28;20368;-65
2022/11/03 21:44:13;;;;;;;2.50;2.30;;;;;;;;;;8274275;28;20272;-63
2022/11/03 21:45:17;;;;;;;2.67;2.25;;;;;;;;;;8274857;28;20352;-64
2022/11/03 21:53:36;;;;;;;2.20;2.00;;;;;;;;;;8274861;28;20052;-63
2022/11/03 21:57:36;;;;;;;3.78;2.30;;;;;;;;;;8276690;28;20018;-62
2022/11/03 22:01:37;;;;;;;3.00;2.40;;;;;;;;;;8275279;28;20037;-63
2022/11/03 22:05:38;;;;;;;4.82;2.17;;;;;;;;;;8274027;28;20107;-62
2022/11/03 22:09:38;;;;;;;2.88;2.58;;;;;;;;;;8275076;28;20025;-63
2022/11/03 22:13:38;;;;;;;2.40;2.10;;;;;;;;;;8274505;28;20040;-63
2022/11/03 22:17:39;;;;;;;4.82;2.28;;;;;;;;;;8274954;28;20041;-63
2022/11/03 22:47:44;;;;;;;2.22;1.70;;;;;;;;;;8272999;28;20122;-63
2022/11/03 22:51:44;;;;;;;2.40;2.00;;;;;;;;;;8272640;28;20030;-63
2022/11/03 22:55:44;;;;;;;3.63;1.85;;;;;;;;;;8273004;28;20148;-63
2022/11/03 22:59:44;;;;;;;1.95;1.70;;;;;;;;;;8273233;28;20033;-63
2022/11/03 23:03:45;;;;;;;1.92;1.42;;;;;;;;;;8272744;28;20034;-64
2022/11/03 23:07:45;;;;;;;1.60;1.50;;;;;;;;;;8273319;28;20120;-63
2022/11/03 23:11:46;;;;;;;1.55;1.45;;;;;;;;;;8272119;28;20491;-63
2022/11/03 23:15:46;;;;;;;3.20;1.40;;;;;;;;;;8273670;28;20045;-63
2022/11/03 23:28:24;;;;;;;1.88;1.38;;;;;;;;;;8271488;28;20140;-63
2022/11/03 23:32:24;;;;;;;2.70;1.45;;;;;;;;;;8272955;28;20034;-64
2022/11/03 23:36:26;;;;;;;1.60;1.25;;;;;;;;;;8273207;28;20710;-63
2022/11/03 23:40:26;;;;;;;1.45;1.30;;;;;;;;;;8271580;28;20146;-63
2022/11/03 23:48:44;;;;;;;2.30;1.23;;;;;;;;;;8271903;28;20076;-63
2022/11/03 23:48:46;;;;;;;1.25;1.17;;;;;;;;;;8272282;28;20166;-67
2022/11/03 23:52:47;;;;;;;1.48;1.10;;;;;;;;;;8271546;28;20021;-63
